createdAt,value
2019-03-27T00:00:34.812Z,44.40
2019-03-27T00:01:35.838Z,44.40
2019-03-27T00:02:36.846Z,44.40
2019-03-27T00:03:37.856Z,44.40
2019-03-27T00:04:38.876Z,44.50
2019-03-27T00:05:39.879Z,44.40
2019-03-27T00:06:40.895Z,44.40
2019-03-27T00:07:42.184Z,44.40
2019-03-27T00:08:43.184Z,44.50
2019-03-27T00:09:44.205Z,44.60
2019-03-27T00:10:45.224Z,44.50
2019-03-27T00:11:46.241Z,44.50
2019-03-27T00:12:47.240Z,44.60
2019-03-27T00:13:48.260Z,44.80
2019-03-27T00:14:49.280Z,44.80
2019-03-27T00:15:50.281Z,44.90
2019-03-27T00:16:51.281Z,44.70
2019-03-27T00:17:52.284Z,44.80
2019-03-27T00:18:53.295Z,44.80
2019-03-27T00:19:54.308Z,44.90
2019-03-27T00:20:55.311Z,44.90
2019-03-27T00:21:56.420Z,44.90
2019-03-27T00:22:57.424Z,44.90
2019-03-27T00:23:58.441Z,45.60
2019-03-27T00:24:59.439Z,44.90
2019-03-27T00:26:00.453Z,44.90
2019-03-27T00:27:01.468Z,44.90
2019-03-27T00:28:02.573Z,44.90
2019-03-27T00:29:03.587Z,45.00
2019-03-27T00:30:06.197Z,44.80
2019-03-27T00:31:07.196Z,44.80
2019-03-27T00:32:08.197Z,45.40
2019-03-27T00:33:09.204Z,44.80
2019-03-27T00:34:10.220Z,44.80
2019-03-27T00:35:11.329Z,45.00
2019-03-27T00:36:12.345Z,45.20
2019-03-27T00:37:13.347Z,45.10
2019-03-27T00:38:14.353Z,45.10
2019-03-27T00:39:15.368Z,45.10
2019-03-27T00:40:16.568Z,45.30
2019-03-27T00:41:17.580Z,45.60
2019-03-27T00:42:18.587Z,45.10
2019-03-27T00:43:19.601Z,45.40
2019-03-27T00:44:20.621Z,45.50
2019-03-27T00:45:26.768Z,45.50
2019-03-27T00:46:24.557Z,45.90
2019-03-27T00:47:25.559Z,45.60
2019-03-27T00:48:26.557Z,45.60
2019-03-27T00:49:27.586Z,45.60
2019-03-27T00:50:28.597Z,45.70
2019-03-27T00:51:29.604Z,45.60
2019-03-27T00:52:30.612Z,45.70
2019-03-27T00:53:31.620Z,45.70
2019-03-27T00:54:32.634Z,45.70
2019-03-27T00:55:33.636Z,45.80
2019-03-27T00:56:34.649Z,45.90
2019-03-27T00:57:35.856Z,46.00
2019-03-27T00:58:36.873Z,46.10
2019-03-27T00:59:37.891Z,46.10
2019-03-27T01:00:45.689Z,46.30
2019-03-27T01:01:46.788Z,46.00
2019-03-27T01:02:47.842Z,45.80
2019-03-27T01:03:48.927Z,45.80
2019-03-27T01:04:49.969Z,45.80
2019-03-27T01:05:50.976Z,45.70
2019-03-27T01:06:52.022Z,45.70
2019-03-27T01:07:53.088Z,46.00
2019-03-27T01:08:54.094Z,46.10
2019-03-27T01:09:55.117Z,46.30
2019-03-27T01:10:56.125Z,46.20
2019-03-27T01:11:57.337Z,46.20
2019-03-27T01:12:58.586Z,46.10
2019-03-27T01:13:59.595Z,46.20
2019-03-27T01:15:00.616Z,46.40
2019-03-27T01:16:01.731Z,46.40
2019-03-27T01:17:02.949Z,46.70
2019-03-27T01:18:03.944Z,46.70
2019-03-27T01:19:05.042Z,46.50
2019-03-27T01:20:06.332Z,46.40
2019-03-27T01:21:07.340Z,46.70
2019-03-27T01:22:08.350Z,46.50
2019-03-27T01:23:09.357Z,46.50
2019-03-27T01:24:10.377Z,46.90
2019-03-27T01:25:12.587Z,47.00
2019-03-27T01:26:13.591Z,47.10
2019-03-27T01:27:14.596Z,47.00
2019-03-27T01:28:15.605Z,46.80
2019-03-27T01:29:16.924Z,46.90
2019-03-27T01:30:18.139Z,47.10
2019-03-27T01:31:19.140Z,47.10
2019-03-27T01:32:20.147Z,47.20
2019-03-27T01:33:21.153Z,47.20
2019-03-27T01:34:22.156Z,47.20
2019-03-27T01:35:23.177Z,48.00
2019-03-27T01:36:24.237Z,47.50
2019-03-27T01:37:26.395Z,47.40
2019-03-27T01:38:28.890Z,47.40
2019-03-27T01:39:30.112Z,47.70
2019-03-27T01:40:31.121Z,47.80
2019-03-27T01:41:32.132Z,47.70
2019-03-27T01:42:33.135Z,47.60
2019-03-27T01:43:34.144Z,47.70
2019-03-27T01:44:35.164Z,47.80
2019-03-27T01:45:36.179Z,48.20
2019-03-27T01:46:37.411Z,48.30
2019-03-27T01:47:38.656Z,47.90
2019-03-27T01:48:39.667Z,47.70
2019-03-27T01:49:40.739Z,47.70
2019-03-27T01:50:41.753Z,47.80
2019-03-27T01:51:42.758Z,47.70
2019-03-27T01:52:43.774Z,47.80
2019-03-27T01:53:44.762Z,48.00
2019-03-27T01:54:46.112Z,48.20
2019-03-27T01:55:47.115Z,48.20
2019-03-27T01:56:48.153Z,48.20
2019-03-27T01:57:49.163Z,48.40
2019-03-27T01:58:50.179Z,48.50
2019-03-27T01:59:51.208Z,48.60
2019-03-27T02:00:52.455Z,48.70
2019-03-27T02:01:53.477Z,48.80
2019-03-27T02:02:54.572Z,48.60
2019-03-27T02:03:55.588Z,48.40
2019-03-27T02:04:56.607Z,49.40
2019-03-27T02:05:57.604Z,48.80
2019-03-27T02:06:58.603Z,48.70
2019-03-27T02:07:59.614Z,48.50
2019-03-27T02:09:00.627Z,48.70
2019-03-27T02:10:03.779Z,48.70
2019-03-27T02:11:04.802Z,48.80
2019-03-27T02:12:05.804Z,48.50
2019-03-27T02:13:06.801Z,48.40
2019-03-27T02:14:08.131Z,48.50
2019-03-27T02:15:09.957Z,48.80
2019-03-27T02:16:10.971Z,48.80
2019-03-27T02:17:11.970Z,48.70
2019-03-27T02:18:12.972Z,48.80
2019-03-27T02:19:13.976Z,48.70
2019-03-27T02:20:15.002Z,49.00
2019-03-27T02:21:15.991Z,49.00
2019-03-27T02:22:16.991Z,49.00
2019-03-27T02:23:17.995Z,49.00
2019-03-27T02:24:19.007Z,49.70
2019-03-27T02:25:20.011Z,49.00
2019-03-27T02:26:21.016Z,49.00
2019-03-27T02:27:22.020Z,49.70
2019-03-27T02:28:23.027Z,49.10
2019-03-27T02:29:24.044Z,49.00
2019-03-27T02:30:25.173Z,49.00
2019-03-27T02:31:26.214Z,48.80
2019-03-27T02:32:27.215Z,48.70
2019-03-27T02:33:28.225Z,48.90
2019-03-27T02:34:29.268Z,48.90
2019-03-27T02:35:30.343Z,49.00
2019-03-27T02:36:31.344Z,49.00
2019-03-27T02:37:32.352Z,49.10
2019-03-27T02:38:33.348Z,48.90
2019-03-27T02:39:34.361Z,49.00
2019-03-27T02:40:35.370Z,49.00
2019-03-27T02:41:36.381Z,49.00
2019-03-27T02:42:37.392Z,49.00
2019-03-27T02:43:38.417Z,49.00
2019-03-27T02:44:39.526Z,49.10
2019-03-27T02:45:40.551Z,49.00
2019-03-27T02:46:41.554Z,49.00
2019-03-27T02:47:42.556Z,49.00
2019-03-27T02:48:43.557Z,49.00
2019-03-27T02:49:44.570Z,49.00
2019-03-27T02:50:45.588Z,49.80
2019-03-27T02:51:46.612Z,49.90
2019-03-27T02:52:47.615Z,50.20
2019-03-27T02:53:48.615Z,50.20
2019-03-27T02:54:49.613Z,50.10
2019-03-27T02:55:50.631Z,50.20
2019-03-27T02:56:51.642Z,50.10
2019-03-27T02:57:52.635Z,50.20
2019-03-27T02:58:53.644Z,49.50
2019-03-27T02:59:54.662Z,49.40
2019-03-27T03:00:56.040Z,49.40
2019-03-27T03:01:57.050Z,49.40
2019-03-27T03:02:58.061Z,49.30
2019-03-27T03:03:59.074Z,49.20
2019-03-27T03:05:00.363Z,49.40
2019-03-27T03:06:01.585Z,49.30
2019-03-27T03:07:02.601Z,49.50
2019-03-27T03:08:03.605Z,49.70
2019-03-27T03:09:06.630Z,49.70
2019-03-27T03:10:09.032Z,49.50
2019-03-27T03:11:10.080Z,49.50
2019-03-27T03:12:11.089Z,49.70
2019-03-27T03:13:12.100Z,49.80
2019-03-27T03:14:13.104Z,49.70
2019-03-27T03:15:19.370Z,49.70
2019-03-27T03:16:20.386Z,49.50
2019-03-27T03:17:21.398Z,49.60
2019-03-27T03:18:22.397Z,50.60
2019-03-27T03:19:23.407Z,50.60
2019-03-27T03:20:24.421Z,50.70
2019-03-27T03:21:25.441Z,50.80
2019-03-27T03:22:26.603Z,50.80
2019-03-27T03:23:27.694Z,50.80
2019-03-27T03:24:28.694Z,50.80
2019-03-27T03:25:29.703Z,51.00
2019-03-27T03:26:30.727Z,51.10
2019-03-27T03:27:31.736Z,51.10
2019-03-27T03:28:32.739Z,51.20
2019-03-27T03:29:33.740Z,51.30
2019-03-27T03:30:34.741Z,51.20
2019-03-27T03:31:35.764Z,51.10
2019-03-27T03:32:36.878Z,51.20
2019-03-27T03:33:37.873Z,50.10
2019-03-27T03:34:38.902Z,50.00
2019-03-27T03:35:40.189Z,49.90
2019-03-27T03:36:41.216Z,49.80
2019-03-27T03:37:42.678Z,49.80
2019-03-27T03:38:43.855Z,49.80
2019-03-27T03:39:44.932Z,49.70
2019-03-27T03:40:45.931Z,49.60
2019-03-27T03:41:46.952Z,49.50
2019-03-27T03:42:47.990Z,49.50
2019-03-27T03:43:49.060Z,49.60
2019-03-27T03:44:50.067Z,49.50
2019-03-27T03:45:51.068Z,49.60
2019-03-27T03:46:59.432Z,49.40
2019-03-27T03:47:54.992Z,49.40
2019-03-27T03:48:56.001Z,49.60
2019-03-27T03:49:56.999Z,49.60
2019-03-27T03:50:58.613Z,50.50
2019-03-27T03:51:59.643Z,49.70
2019-03-27T03:53:00.872Z,49.70
2019-03-27T03:54:01.878Z,49.90
2019-03-27T03:55:04.684Z,50.00
2019-03-27T03:56:06.490Z,49.80
2019-03-27T03:57:07.915Z,49.80
2019-03-27T03:58:10.721Z,49.80
2019-03-27T03:59:13.532Z,49.80
2019-03-27T04:00:14.632Z,49.80
2019-03-27T04:01:17.545Z,49.70
2019-03-27T04:02:20.001Z,49.50
2019-03-27T04:03:24.817Z,49.60
2019-03-27T04:04:27.230Z,49.60
2019-03-27T04:05:28.507Z,49.80
2019-03-27T04:06:29.532Z,50.00
2019-03-27T04:07:30.566Z,50.10
2019-03-27T04:08:31.596Z,50.20
2019-03-27T04:09:32.610Z,50.10
2019-03-27T04:10:33.869Z,50.10
2019-03-27T04:11:34.878Z,50.00
2019-03-27T04:12:35.897Z,50.00
2019-03-27T04:13:36.904Z,50.00
2019-03-27T04:14:37.910Z,50.00
2019-03-27T04:15:39.037Z,50.00
2019-03-27T04:16:40.050Z,50.00
2019-03-27T04:17:41.077Z,50.10
2019-03-27T04:18:42.098Z,50.00
2019-03-27T04:19:43.105Z,50.00
2019-03-27T04:20:44.207Z,49.90
2019-03-27T04:21:45.211Z,50.00
2019-03-27T04:22:46.233Z,50.10
2019-03-27T04:23:47.235Z,50.10
2019-03-27T04:24:48.262Z,49.90
2019-03-27T04:26:09.042Z,49.80
2019-03-27T04:26:52.172Z,49.80
2019-03-27T04:27:53.187Z,49.80
2019-03-27T04:28:54.203Z,49.80
2019-03-27T04:29:55.205Z,49.90
2019-03-27T04:30:56.218Z,50.00
2019-03-27T04:31:57.221Z,50.30
2019-03-27T04:32:58.254Z,50.20
2019-03-27T04:33:59.351Z,50.30
2019-03-27T04:35:00.611Z,50.50
2019-03-27T04:36:01.998Z,50.50
2019-03-27T04:37:03.020Z,50.50
2019-03-27T04:38:04.086Z,50.30
2019-03-27T04:39:05.175Z,50.20
2019-03-27T04:40:07.180Z,50.40
2019-03-27T04:41:08.185Z,50.20
2019-03-27T04:42:09.200Z,50.40
2019-03-27T04:43:10.222Z,50.60
2019-03-27T04:44:11.224Z,50.60
2019-03-27T04:45:15.342Z,50.60
2019-03-27T04:46:16.365Z,50.50
2019-03-27T04:47:31.405Z,50.60
2019-03-27T04:48:20.375Z,50.60
2019-03-27T04:49:21.400Z,50.60
2019-03-27T04:50:22.412Z,50.70
2019-03-27T04:51:23.408Z,50.70
2019-03-27T04:52:24.724Z,50.60
2019-03-27T04:53:25.768Z,50.70
2019-03-27T04:54:27.119Z,50.40
2019-03-27T04:55:28.304Z,50.50
2019-03-27T04:56:29.313Z,50.60
2019-03-27T04:57:30.345Z,51.40
2019-03-27T04:58:31.355Z,50.70
2019-03-27T04:59:32.368Z,50.60
2019-03-27T05:00:33.394Z,50.50
2019-03-27T05:01:34.433Z,51.50
2019-03-27T05:02:35.443Z,50.70
2019-03-27T05:03:36.460Z,50.60
2019-03-27T05:04:37.785Z,50.70
2019-03-27T05:05:38.805Z,50.60
2019-03-27T05:06:39.807Z,50.60
2019-03-27T05:07:40.821Z,50.60
2019-03-27T05:08:41.833Z,50.80
2019-03-27T05:09:42.864Z,50.80
2019-03-27T05:10:43.862Z,51.00
2019-03-27T05:11:44.893Z,51.30
2019-03-27T05:12:45.875Z,51.40
2019-03-27T05:13:46.889Z,51.20
2019-03-27T05:14:47.892Z,51.00
2019-03-27T05:15:48.899Z,51.10
2019-03-27T05:16:49.895Z,51.00
2019-03-27T05:17:50.908Z,51.10
2019-03-27T05:18:51.923Z,51.20
2019-03-27T05:19:52.946Z,51.10
2019-03-27T05:20:53.954Z,50.90
2019-03-27T05:21:54.969Z,50.80
2019-03-27T05:22:55.972Z,50.80
2019-03-27T05:23:57.094Z,50.80
2019-03-27T05:24:58.101Z,51.20
2019-03-27T05:25:59.148Z,51.60
2019-03-27T05:27:00.148Z,51.10
2019-03-27T05:28:01.151Z,51.60
2019-03-27T05:29:02.177Z,50.70
2019-03-27T05:30:05.580Z,50.70
2019-03-27T05:31:06.587Z,50.70
2019-03-27T05:32:07.614Z,50.80
2019-03-27T05:33:08.677Z,50.80
2019-03-27T05:34:09.767Z,50.80
2019-03-27T05:35:10.772Z,50.80
2019-03-27T05:36:11.793Z,50.80
2019-03-27T05:37:12.812Z,50.80
2019-03-27T05:38:13.820Z,50.90
2019-03-27T05:39:14.880Z,50.90
2019-03-27T05:40:15.952Z,51.00
2019-03-27T05:41:16.969Z,51.10
2019-03-27T05:42:17.980Z,51.10
2019-03-27T05:43:19.048Z,51.00
2019-03-27T05:44:20.070Z,51.00
2019-03-27T05:45:21.068Z,51.00
2019-03-27T05:46:22.072Z,51.10
2019-03-27T05:47:23.100Z,51.00
2019-03-27T05:48:24.116Z,50.90
2019-03-27T05:49:25.127Z,50.90
2019-03-27T05:50:26.200Z,50.90
2019-03-27T05:51:27.203Z,51.00
2019-03-27T05:52:28.239Z,51.00
2019-03-27T05:53:29.259Z,51.20
2019-03-27T05:54:30.260Z,51.20
2019-03-27T05:55:31.305Z,51.20
2019-03-27T05:56:32.325Z,51.40
2019-03-27T05:57:33.357Z,52.50
2019-03-27T05:58:34.367Z,52.30
2019-03-27T05:59:35.371Z,52.10
2019-03-27T06:00:36.412Z,52.10
2019-03-27T06:01:37.412Z,52.00
2019-03-27T06:02:38.415Z,52.10
2019-03-27T06:03:39.435Z,52.20
2019-03-27T06:04:40.440Z,51.60
2019-03-27T06:05:41.454Z,52.80
2019-03-27T06:06:42.462Z,52.30
2019-03-27T06:07:43.469Z,52.10
2019-03-27T06:08:44.478Z,52.10
2019-03-27T06:09:45.519Z,51.80
2019-03-27T06:10:46.609Z,51.60
2019-03-27T06:11:47.621Z,51.70
2019-03-27T06:12:48.624Z,51.50
2019-03-27T06:13:49.943Z,51.50
2019-03-27T06:14:51.351Z,51.70
2019-03-27T06:15:52.356Z,51.80
2019-03-27T06:16:53.391Z,52.20
2019-03-27T06:17:54.393Z,51.80
2019-03-27T06:18:55.403Z,52.20
2019-03-27T06:19:56.416Z,52.00
2019-03-27T06:20:57.425Z,51.80
2019-03-27T06:21:58.441Z,52.10
2019-03-27T06:22:59.443Z,52.60
2019-03-27T06:24:00.455Z,52.50
2019-03-27T06:25:01.459Z,52.20
2019-03-27T06:26:02.868Z,52.20
2019-03-27T06:27:03.873Z,52.20
2019-03-27T06:28:04.895Z,52.40
2019-03-27T06:29:05.911Z,53.40
2019-03-27T06:30:07.324Z,53.50
2019-03-27T06:31:08.322Z,52.70
2019-03-27T06:32:09.350Z,52.70
2019-03-27T06:33:10.360Z,53.60
2019-03-27T06:34:11.375Z,52.70
2019-03-27T06:35:12.384Z,53.50
2019-03-27T06:36:13.404Z,52.80
2019-03-27T06:37:14.396Z,52.60
2019-03-27T06:38:15.395Z,52.30
2019-03-27T06:39:16.416Z,52.20
2019-03-27T06:40:17.420Z,52.30
2019-03-27T06:41:18.427Z,52.30
2019-03-27T06:42:19.437Z,52.30
2019-03-27T06:43:20.449Z,52.30
2019-03-27T06:44:21.460Z,52.40
2019-03-27T06:45:22.473Z,52.40
2019-03-27T06:46:23.478Z,52.30
2019-03-27T06:47:24.485Z,52.40
2019-03-27T06:48:26.630Z,52.40
2019-03-27T06:49:27.919Z,52.40
2019-03-27T06:50:28.946Z,52.20
2019-03-27T06:51:39.884Z,52.30
2019-03-27T06:52:32.889Z,52.20
2019-03-27T06:53:33.897Z,52.20
2019-03-27T06:54:34.926Z,52.10
2019-03-27T06:55:35.988Z,52.20
2019-03-27T06:56:36.991Z,52.00
2019-03-27T06:57:37.997Z,52.00
2019-03-27T06:58:39.018Z,52.00
2019-03-27T06:59:40.031Z,52.00
2019-03-27T07:00:41.066Z,51.90
2019-03-27T07:01:42.064Z,52.20
2019-03-27T07:02:43.079Z,52.00
2019-03-27T07:03:44.088Z,52.00
2019-03-27T07:04:45.109Z,51.90
2019-03-27T07:05:46.107Z,52.00
2019-03-27T07:06:47.113Z,51.90
2019-03-27T07:07:48.123Z,52.60
2019-03-27T07:08:49.123Z,52.40
2019-03-27T07:09:50.135Z,52.20
2019-03-27T07:10:51.155Z,52.40
2019-03-27T07:11:52.153Z,52.50
2019-03-27T07:12:53.168Z,52.40
2019-03-27T07:13:54.180Z,52.40
2019-03-27T07:14:55.194Z,52.40
2019-03-27T07:15:56.206Z,52.30
2019-03-27T07:16:57.208Z,52.20
2019-03-27T07:17:58.225Z,52.20
2019-03-27T07:18:59.228Z,52.40
2019-03-27T07:20:00.362Z,52.20
2019-03-27T07:21:01.468Z,52.10
2019-03-27T07:22:02.482Z,52.60
2019-03-27T07:23:03.480Z,52.50
2019-03-27T07:24:04.555Z,52.30
2019-03-27T07:25:06.307Z,52.30
2019-03-27T07:26:07.320Z,52.30
2019-03-27T07:27:08.455Z,52.20
2019-03-27T07:28:09.470Z,52.10
2019-03-27T07:29:10.480Z,52.50
2019-03-27T07:30:12.094Z,52.20
2019-03-27T07:31:13.093Z,52.40
2019-03-27T07:32:14.095Z,52.90
2019-03-27T07:33:15.101Z,52.50
2019-03-27T07:34:16.114Z,52.20
2019-03-27T07:35:17.131Z,52.20
2019-03-27T07:36:18.139Z,52.20
2019-03-27T07:37:19.147Z,52.20
2019-03-27T07:38:20.143Z,52.20
2019-03-27T07:39:21.154Z,51.90
2019-03-27T07:40:22.175Z,52.00
2019-03-27T07:41:23.217Z,52.10
2019-03-27T07:42:24.224Z,52.20
2019-03-27T07:43:25.233Z,52.20
2019-03-27T07:44:26.248Z,53.20
2019-03-27T07:45:27.299Z,52.40
2019-03-27T07:46:28.935Z,52.40
2019-03-27T07:47:30.015Z,52.20
2019-03-27T07:48:31.045Z,52.10
2019-03-27T07:49:32.053Z,52.20
2019-03-27T07:50:33.055Z,52.60
2019-03-27T07:51:34.064Z,52.40
2019-03-27T07:52:35.074Z,53.00
2019-03-27T07:53:36.080Z,52.20
2019-03-27T07:54:37.093Z,52.20
2019-03-27T07:55:38.107Z,52.40
2019-03-27T07:56:39.136Z,53.10
2019-03-27T07:57:40.144Z,52.30
2019-03-27T07:58:41.158Z,52.20
2019-03-27T07:59:42.401Z,52.30
2019-03-27T08:00:43.425Z,52.20
2019-03-27T08:01:44.428Z,52.20
2019-03-27T08:02:45.441Z,52.10
2019-03-27T08:03:46.457Z,52.30
2019-03-27T08:04:47.470Z,52.30
2019-03-27T08:05:48.489Z,52.20
2019-03-27T08:06:49.497Z,52.00
2019-03-27T08:07:50.502Z,52.10
2019-03-27T08:08:51.519Z,52.20
2019-03-27T08:09:55.284Z,52.80
2019-03-27T08:10:56.285Z,52.20
2019-03-27T08:11:57.397Z,52.30
2019-03-27T08:12:58.424Z,52.20
2019-03-27T08:13:59.504Z,51.90
2019-03-27T08:15:00.652Z,51.90
2019-03-27T08:16:01.849Z,51.80
2019-03-27T08:17:02.975Z,51.70
2019-03-27T08:18:04.085Z,52.00
2019-03-27T08:19:07.919Z,51.90
2019-03-27T08:20:08.671Z,51.70
2019-03-27T08:21:09.768Z,51.60
2019-03-27T08:22:10.773Z,51.60
2019-03-27T08:23:11.782Z,51.30
2019-03-27T08:24:12.789Z,51.70
2019-03-27T08:25:14.101Z,51.10
2019-03-27T08:26:15.116Z,51.60
2019-03-27T08:27:16.131Z,51.50
2019-03-27T08:28:17.135Z,51.60
2019-03-27T08:29:18.139Z,52.30
2019-03-27T08:30:19.267Z,52.00
2019-03-27T08:31:20.280Z,51.90
2019-03-27T08:32:21.299Z,51.90
2019-03-27T08:33:22.413Z,51.90
2019-03-27T08:34:23.440Z,52.10
2019-03-27T08:35:24.448Z,52.00
2019-03-27T08:36:25.459Z,51.90
2019-03-27T08:37:26.469Z,51.50
2019-03-27T08:38:27.467Z,51.60
2019-03-27T08:39:28.497Z,51.60
2019-03-27T08:40:29.609Z,51.50
2019-03-27T08:41:30.628Z,52.10
2019-03-27T08:42:31.642Z,52.10
2019-03-27T08:43:32.643Z,51.40
2019-03-27T08:44:33.648Z,51.50
2019-03-27T08:45:34.653Z,51.70
2019-03-27T08:46:35.681Z,52.30
2019-03-27T08:47:37.384Z,51.60
2019-03-27T08:48:39.297Z,51.50
2019-03-27T08:49:40.517Z,51.30
2019-03-27T08:50:41.528Z,51.40
2019-03-27T08:51:42.548Z,51.50
2019-03-27T08:52:43.551Z,51.30
2019-03-27T08:53:44.585Z,51.30
2019-03-27T08:54:45.901Z,51.50
2019-03-27T08:55:47.303Z,52.00
2019-03-27T08:56:48.315Z,52.10
2019-03-27T08:57:49.324Z,52.30
2019-03-27T08:58:50.334Z,52.30
2019-03-27T08:59:51.344Z,52.40
2019-03-27T09:00:52.764Z,52.20
2019-03-27T09:01:53.789Z,52.20
2019-03-27T09:02:54.814Z,51.90
2019-03-27T09:03:55.820Z,51.60
2019-03-27T09:04:56.828Z,51.50
2019-03-27T09:05:57.828Z,51.50
2019-03-27T09:06:58.839Z,51.60
2019-03-27T09:07:59.848Z,51.90
2019-03-27T09:09:00.847Z,51.90
2019-03-27T09:10:04.661Z,51.30
2019-03-27T09:11:05.696Z,51.30
2019-03-27T09:12:06.716Z,51.50
2019-03-27T09:13:07.775Z,51.30
2019-03-27T09:14:08.775Z,51.40
2019-03-27T09:15:10.473Z,51.20
2019-03-27T09:16:11.544Z,51.20
2019-03-27T09:17:12.565Z,51.40
2019-03-27T09:18:16.811Z,51.30
2019-03-27T09:19:16.477Z,51.30
2019-03-27T09:20:17.484Z,51.80
2019-03-27T09:21:18.501Z,52.10
2019-03-27T09:22:19.508Z,52.10
2019-03-27T09:23:20.519Z,50.90
2019-03-27T09:24:21.538Z,50.40
2019-03-27T09:25:22.528Z,50.50
2019-03-27T09:26:23.555Z,50.50
2019-03-27T09:27:24.549Z,50.50
2019-03-27T09:28:25.557Z,50.60
2019-03-27T09:29:26.560Z,50.60
2019-03-27T09:30:27.660Z,50.70
2019-03-27T09:31:28.673Z,50.70
2019-03-27T09:32:29.679Z,51.40
2019-03-27T09:33:30.685Z,50.60
2019-03-27T09:34:31.709Z,50.00
2019-03-27T09:35:32.727Z,49.30
2019-03-27T09:36:33.741Z,49.40
2019-03-27T09:37:34.763Z,49.20
2019-03-27T09:38:35.849Z,49.50
2019-03-27T09:39:36.853Z,49.50
2019-03-27T09:40:37.948Z,49.60
2019-03-27T09:41:38.989Z,49.40
2019-03-27T09:42:40.000Z,49.90
2019-03-27T09:43:41.004Z,49.60
2019-03-27T09:44:42.012Z,49.20
2019-03-27T09:45:43.121Z,49.40
2019-03-27T09:46:44.149Z,49.80
2019-03-27T09:47:45.156Z,49.20
2019-03-27T09:48:46.176Z,49.20
2019-03-27T09:49:49.775Z,48.90
2019-03-27T09:50:50.115Z,50.10
2019-03-27T09:51:51.126Z,49.10
2019-03-27T09:52:52.127Z,49.40
2019-03-27T09:53:53.432Z,49.80
2019-03-27T09:54:54.553Z,49.90
2019-03-27T09:55:56.180Z,49.10
2019-03-27T09:56:57.196Z,49.00
2019-03-27T09:57:58.213Z,49.50
2019-03-27T09:58:59.207Z,49.00
2019-03-27T10:00:00.564Z,48.60
2019-03-27T10:01:02.180Z,48.50
2019-03-27T10:02:03.235Z,48.30
2019-03-27T10:03:04.255Z,48.30
2019-03-27T10:04:05.244Z,48.30
2019-03-27T10:05:07.052Z,48.30
2019-03-27T10:06:08.064Z,48.10
2019-03-27T10:07:09.084Z,47.70
2019-03-27T10:08:10.093Z,47.90
2019-03-27T10:09:11.108Z,47.70
2019-03-27T10:10:12.513Z,47.90
2019-03-27T10:11:13.516Z,48.20
2019-03-27T10:12:14.629Z,48.30
2019-03-27T10:13:16.172Z,47.40
2019-03-27T10:14:17.173Z,47.40
2019-03-27T10:15:18.180Z,47.10
2019-03-27T10:16:19.187Z,47.10
2019-03-27T10:17:20.201Z,47.50
2019-03-27T10:18:21.225Z,47.20
2019-03-27T10:19:22.225Z,47.20
2019-03-27T10:20:23.241Z,46.80
2019-03-27T10:21:24.254Z,46.80
2019-03-27T10:22:25.273Z,47.00
2019-03-27T10:23:26.362Z,47.10
2019-03-27T10:24:27.383Z,47.00
2019-03-27T10:25:28.393Z,47.00
2019-03-27T10:26:29.405Z,47.10
2019-03-27T10:27:30.428Z,47.10
2019-03-27T10:28:31.756Z,47.00
2019-03-27T10:29:32.844Z,46.70
2019-03-27T10:30:33.891Z,46.20
2019-03-27T10:31:35.179Z,45.40
2019-03-27T10:32:36.195Z,46.10
2019-03-27T10:33:37.205Z,45.70
2019-03-27T10:34:38.209Z,45.60
2019-03-27T10:35:39.232Z,45.90
2019-03-27T10:36:40.264Z,45.80
2019-03-27T10:37:41.274Z,45.80
2019-03-27T10:38:42.280Z,45.70
2019-03-27T10:39:43.312Z,45.30
2019-03-27T10:40:44.411Z,45.50
2019-03-27T10:41:45.422Z,45.10
2019-03-27T10:42:46.468Z,45.70
2019-03-27T10:43:47.472Z,45.80
2019-03-27T10:44:48.477Z,45.30
2019-03-27T10:45:49.480Z,45.40
2019-03-27T10:46:50.513Z,45.20
2019-03-27T10:47:51.532Z,45.00
2019-03-27T10:48:53.222Z,44.70
2019-03-27T10:49:54.336Z,43.30
2019-03-27T10:50:55.340Z,44.00
2019-03-27T10:51:56.343Z,44.10
2019-03-27T10:52:57.362Z,43.60
2019-03-27T10:53:58.388Z,43.40
2019-03-27T10:54:59.435Z,43.40
2019-03-27T10:56:00.484Z,43.90
2019-03-27T10:57:01.491Z,43.40
2019-03-27T10:58:02.559Z,43.20
2019-03-27T10:59:03.617Z,43.40
2019-03-27T11:00:09.201Z,44.00
2019-03-27T11:01:10.208Z,43.50
2019-03-27T11:02:11.212Z,43.10
2019-03-27T11:03:12.563Z,42.20
2019-03-27T11:04:13.568Z,42.50
2019-03-27T11:05:14.580Z,43.00
2019-03-27T11:06:15.640Z,43.00
2019-03-27T11:07:16.696Z,43.50
2019-03-27T11:08:17.700Z,43.20
2019-03-27T11:09:18.828Z,44.30
2019-03-27T11:10:19.894Z,43.60
2019-03-27T11:11:20.947Z,43.70
2019-03-27T11:12:21.965Z,43.80
2019-03-27T11:13:22.976Z,43.20
2019-03-27T11:14:36.863Z,42.90
2019-03-27T11:15:26.992Z,42.80
2019-03-27T11:16:28.005Z,42.70
2019-03-27T11:17:29.007Z,41.90
2019-03-27T11:18:30.045Z,41.80
2019-03-27T11:19:33.589Z,42.20
2019-03-27T11:20:33.994Z,42.30
2019-03-27T11:21:35.016Z,42.30
2019-03-27T11:22:36.121Z,42.00
2019-03-27T11:23:37.133Z,42.40
2019-03-27T11:24:38.156Z,41.60
2019-03-27T11:25:39.217Z,41.60
2019-03-27T11:26:40.233Z,42.00
2019-03-27T11:27:41.236Z,42.00
2019-03-27T11:28:42.260Z,41.80
2019-03-27T11:29:43.264Z,41.10
2019-03-27T11:30:44.280Z,41.10
2019-03-27T11:31:45.285Z,41.40
2019-03-27T11:32:46.288Z,41.20
2019-03-27T11:33:47.309Z,40.80
2019-03-27T11:34:48.336Z,41.50
2019-03-27T11:35:51.741Z,42.50
2019-03-27T11:36:52.332Z,42.50
2019-03-27T11:37:53.345Z,41.60
2019-03-27T11:38:54.366Z,41.30
2019-03-27T11:39:55.380Z,41.70
2019-03-27T11:40:56.385Z,41.30
2019-03-27T11:42:00.530Z,41.00
2019-03-27T11:43:00.635Z,42.20
2019-03-27T11:44:01.670Z,41.70
2019-03-27T11:45:05.614Z,41.50
2019-03-27T11:46:06.615Z,41.00
2019-03-27T11:47:07.637Z,40.80
2019-03-27T11:48:08.748Z,41.30
2019-03-27T11:49:09.748Z,41.00
2019-03-27T11:50:10.953Z,41.10
2019-03-27T11:51:12.006Z,40.00
2019-03-27T11:52:13.004Z,39.90
2019-03-27T11:53:14.007Z,39.90
2019-03-27T11:54:15.028Z,40.00
2019-03-27T11:55:16.039Z,39.50
2019-03-27T11:56:17.044Z,39.40
2019-03-27T11:57:18.044Z,39.90
2019-03-27T11:58:19.051Z,39.70
2019-03-27T11:59:20.067Z,41.20
2019-03-27T12:00:21.276Z,41.20
2019-03-27T12:01:22.448Z,41.30
2019-03-27T12:02:23.457Z,41.20
2019-03-27T12:03:24.461Z,41.30
2019-03-27T12:04:25.492Z,41.70
2019-03-27T12:05:26.594Z,41.80
2019-03-27T12:06:27.591Z,41.90
2019-03-27T12:07:28.605Z,41.80
2019-03-27T12:08:29.599Z,42.20
2019-03-27T12:09:30.616Z,41.90
2019-03-27T12:10:31.624Z,41.90
2019-03-27T12:11:32.636Z,42.40
2019-03-27T12:12:33.640Z,42.20
2019-03-27T12:13:34.644Z,41.70
2019-03-27T12:14:35.669Z,41.80
2019-03-27T12:15:40.443Z,41.60
2019-03-27T12:16:41.463Z,41.20
2019-03-27T12:17:42.468Z,40.50
2019-03-27T12:18:43.776Z,40.30
2019-03-27T12:19:44.796Z,40.50
2019-03-27T12:20:58.332Z,40.40
2019-03-27T12:21:48.729Z,40.70
2019-03-27T12:22:57.595Z,40.90
2019-03-27T12:23:52.640Z,41.00
2019-03-27T12:24:53.696Z,41.10
2019-03-27T12:25:55.337Z,41.30
2019-03-27T12:26:56.628Z,41.30
2019-03-27T12:27:57.636Z,41.50
2019-03-27T12:28:58.660Z,41.30
2019-03-27T12:29:59.669Z,41.40
2019-03-27T12:31:00.664Z,41.70
2019-03-27T12:32:01.677Z,41.60
2019-03-27T12:33:03.076Z,41.80
2019-03-27T12:34:04.084Z,41.30
2019-03-27T12:35:05.123Z,41.60
2019-03-27T12:36:06.112Z,41.40
2019-03-27T12:37:07.124Z,41.30
2019-03-27T12:38:08.137Z,41.80
2019-03-27T12:39:09.186Z,41.00
2019-03-27T12:40:11.925Z,41.20
2019-03-27T12:41:13.195Z,41.40
2019-03-27T12:42:14.201Z,41.60
2019-03-27T12:43:15.220Z,41.80
2019-03-27T12:44:19.144Z,42.60
2019-03-27T12:45:20.174Z,41.80
2019-03-27T12:46:21.256Z,41.80
2019-03-27T12:47:22.297Z,41.70
2019-03-27T12:48:23.374Z,41.70
2019-03-27T12:49:24.417Z,41.40
2019-03-27T12:50:25.506Z,41.00
2019-03-27T12:51:26.574Z,41.20
2019-03-27T12:52:27.603Z,41.20
2019-03-27T12:53:28.859Z,41.20
2019-03-27T12:54:29.886Z,40.80
2019-03-27T12:55:30.925Z,40.80
2019-03-27T12:56:31.935Z,40.60
2019-03-27T12:57:32.944Z,40.90
2019-03-27T12:58:33.944Z,40.70
2019-03-27T12:59:34.969Z,40.40
2019-03-27T13:00:36.083Z,40.50
2019-03-27T13:01:37.088Z,41.30
2019-03-27T13:02:38.095Z,40.80
2019-03-27T13:03:39.159Z,40.80
2019-03-27T13:04:40.504Z,40.60
2019-03-27T13:05:41.540Z,40.60
2019-03-27T13:06:42.564Z,40.50
2019-03-27T13:07:49.914Z,40.70